createdAt,value
2017-11-19T00:00:05.846Z,3.33
2017-11-19T00:02:34.083Z,3.27
2017-11-19T00:05:01.630Z,3.33
2017-11-19T00:07:29.973Z,3.50
2017-11-19T00:09:57.491Z,4.20
2017-11-19T00:12:25.082Z,3.40
2017-11-19T00:14:52.645Z,3.60
2017-11-19T00:17:20.241Z,3.10
2017-11-19T00:19:47.766Z,3.67
2017-11-19T00:22:15.576Z,3.43
2017-11-19T00:24:43.417Z,2.90
2017-11-19T00:27:10.980Z,3.07
2017-11-19T00:29:38.721Z,2.90
2017-11-19T00:32:06.360Z,2.60
2017-11-19T00:34:33.926Z,2.90
2017-11-19T00:37:01.598Z,3.30
2017-11-19T00:39:29.174Z,3.13
2017-11-19T00:41:56.810Z,2.80
2017-11-19T00:44:24.487Z,3.57
2017-11-19T00:46:52.011Z,3.03
2017-11-19T00:49:20.462Z,2.83
2017-11-19T00:51:47.979Z,2.70
2017-11-19T00:54:15.540Z,3.20
2017-11-19T00:56:43.043Z,3.27
2017-11-19T00:59:11.471Z,3.47
2017-11-19T01:01:39.077Z,3.47
2017-11-19T01:04:06.880Z,3.93
2017-11-19T01:06:34.400Z,3.37
2017-11-19T01:09:01.971Z,3.97
2017-11-19T01:11:29.577Z,3.60
2017-11-19T01:13:57.076Z,3.63
2017-11-19T01:16:24.614Z,4.50
2017-11-19T01:18:52.132Z,4.00
2017-11-19T01:21:19.626Z,3.60
2017-11-19T01:23:47.220Z,3.90
2017-11-19T01:26:14.724Z,3.83
2017-11-19T01:28:42.309Z,3.90
2017-11-19T01:31:09.802Z,5.00
2017-11-19T01:33:38.215Z,3.70
2017-11-19T01:36:06.181Z,3.87
2017-11-19T01:38:33.777Z,3.77
2017-11-19T01:41:02.129Z,4.43
2017-11-19T01:43:29.796Z,3.33
2017-11-19T01:45:57.306Z,3.50
2017-11-19T01:48:26.544Z,3.60
2017-11-19T01:50:54.179Z,3.73
2017-11-19T01:53:22.573Z,2.87
2017-11-19T01:55:50.131Z,3.23
2017-11-19T01:58:17.667Z,2.93
2017-11-19T02:00:45.182Z,3.57
2017-11-19T02:03:12.788Z,3.43
2017-11-19T02:05:40.298Z,3.20
2017-11-19T02:08:07.832Z,3.10
2017-11-19T02:10:35.414Z,2.80
2017-11-19T02:13:02.945Z,2.27
2017-11-19T02:15:30.504Z,2.37
2017-11-19T02:17:58.045Z,2.23
2017-11-19T02:20:25.550Z,2.23
2017-11-19T02:22:53.047Z,2.30
2017-11-19T02:25:20.566Z,1.60
2017-11-19T02:27:48.059Z,2.10
2017-11-19T02:30:15.578Z,2.30
2017-11-19T02:32:43.074Z,1.60
2017-11-19T02:35:11.370Z,1.53
2017-11-19T02:37:38.872Z,1.53
2017-11-19T02:40:06.510Z,1.80
2017-11-19T02:42:34.036Z,1.63
2017-11-19T02:45:01.545Z,1.37
2017-11-19T02:47:29.145Z,1.60
2017-11-19T02:49:56.718Z,1.20
2017-11-19T02:52:24.270Z,1.30
2017-11-19T02:54:51.792Z,1.07
2017-11-19T02:57:19.382Z,1.27
2017-11-19T02:59:46.897Z,1.30
2017-11-19T03:02:14.412Z,1.30
2017-11-19T03:04:41.953Z,1.00
2017-11-19T03:07:09.513Z,1.20
2017-11-19T03:09:37.088Z,0.90
2017-11-19T03:12:04.598Z,1.00
2017-11-19T03:14:32.120Z,1.20
2017-11-19T03:16:59.642Z,0.90
2017-11-19T03:19:27.208Z,0.90
2017-11-19T03:21:54.722Z,0.90
2017-11-19T03:24:22.319Z,1.00
2017-11-19T03:26:49.879Z,1.00
2017-11-19T03:29:17.374Z,1.00
2017-11-19T03:31:44.870Z,1.10
2017-11-19T03:34:13.169Z,1.00
2017-11-19T03:36:40.743Z,1.07
2017-11-19T03:39:08.299Z,1.00
2017-11-19T03:41:35.819Z,1.00
2017-11-19T03:44:03.342Z,0.97
2017-11-19T03:46:30.960Z,1.00
2017-11-19T03:48:58.532Z,0.90
2017-11-19T03:51:26.054Z,0.80
2017-11-19T03:53:54.334Z,0.97
2017-11-19T03:56:22.634Z,0.83
2017-11-19T03:58:50.155Z,1.00
2017-11-19T04:01:17.684Z,0.90
2017-11-19T04:03:45.174Z,1.23
2017-11-19T04:06:13.484Z,0.87
2017-11-19T04:08:40.993Z,0.97
2017-11-19T04:11:08.605Z,0.90
2017-11-19T04:13:36.140Z,1.00
2017-11-19T04:16:04.402Z,1.00
2017-11-19T04:18:32.757Z,1.07
2017-11-19T04:21:00.261Z,1.00
2017-11-19T04:23:27.763Z,0.93
2017-11-19T04:25:55.383Z,1.00
2017-11-19T04:28:22.906Z,1.30
2017-11-19T04:30:50.434Z,1.17
2017-11-19T04:33:17.926Z,1.10
2017-11-19T04:35:45.510Z,1.00
2017-11-19T04:38:13.007Z,1.00
2017-11-19T04:40:40.530Z,0.93
2017-11-19T04:43:08.027Z,0.80
2017-11-19T04:45:35.518Z,0.83
2017-11-19T04:48:03.816Z,0.90
2017-11-19T04:50:31.354Z,1.00
2017-11-19T04:52:59.769Z,0.87
2017-11-19T04:55:27.287Z,0.90
2017-11-19T04:57:55.573Z,0.90
2017-11-19T05:00:23.074Z,0.80
2017-11-19T05:02:50.616Z,0.80
2017-11-19T05:05:18.118Z,0.90
2017-11-19T05:07:46.394Z,0.80
2017-11-19T05:10:13.922Z,0.90
2017-11-19T05:12:41.430Z,0.73
2017-11-19T05:15:09.700Z,0.80
2017-11-19T05:17:37.997Z,0.90
2017-11-19T05:20:05.502Z,1.00
2017-11-19T05:22:33.034Z,0.70
2017-11-19T05:25:00.571Z,0.80
2017-11-19T05:27:28.094Z,0.80
2017-11-19T05:29:55.611Z,1.07
2017-11-19T05:32:23.110Z,1.00
2017-11-19T05:34:51.082Z,0.80
2017-11-19T05:37:18.591Z,0.80
2017-11-19T05:39:46.137Z,1.07
2017-11-19T05:42:13.645Z,0.90
2017-11-19T05:44:41.243Z,1.10
2017-11-19T05:47:08.790Z,1.00
2017-11-19T05:49:37.071Z,0.90
2017-11-19T05:52:04.584Z,0.90
2017-11-19T05:54:32.095Z,0.87
2017-11-19T05:56:59.638Z,1.00
2017-11-19T05:59:27.898Z,0.90
2017-11-19T06:01:56.167Z,0.90
2017-11-19T06:04:23.682Z,0.70
2017-11-19T06:06:51.181Z,0.90
2017-11-19T06:09:19.616Z,0.80
2017-11-19T06:11:47.149Z,0.90
2017-11-19T06:14:14.670Z,0.90
2017-11-19T06:16:42.193Z,0.80
2017-11-19T06:19:09.673Z,0.83
2017-11-19T06:21:37.205Z,0.80
2017-11-19T06:24:04.758Z,1.00
2017-11-19T06:26:32.301Z,0.90
2017-11-19T06:28:59.800Z,0.97
2017-11-19T06:31:27.323Z,0.80
2017-11-19T06:33:54.863Z,0.93
2017-11-19T06:36:22.363Z,0.90
2017-11-19T06:38:49.907Z,0.90
2017-11-19T06:41:17.397Z,1.00
2017-11-19T06:43:44.890Z,0.90
2017-11-19T06:46:12.480Z,0.80
2017-11-19T06:48:39.998Z,0.97
2017-11-19T06:51:08.279Z,1.20
2017-11-19T06:53:36.542Z,0.83
2017-11-19T06:56:04.878Z,1.50
2017-11-19T06:58:32.379Z,1.30
2017-11-19T07:01:00.638Z,1.50
2017-11-19T07:03:28.149Z,1.20
2017-11-19T07:05:55.716Z,1.20
2017-11-19T07:08:23.264Z,1.30
2017-11-19T07:10:50.766Z,1.20
2017-11-19T07:13:18.295Z,1.80
2017-11-19T07:15:45.790Z,2.80
2017-11-19T07:18:13.311Z,1.90
2017-11-19T07:20:40.829Z,1.90
2017-11-19T07:23:08.354Z,2.13
2017-11-19T07:25:35.871Z,2.53
2017-11-19T07:28:03.374Z,2.13
2017-11-19T07:30:31.671Z,2.20
2017-11-19T07:32:59.967Z,2.50
2017-11-19T07:35:27.506Z,2.00
2017-11-19T07:37:55.807Z,2.30
2017-11-19T07:40:23.305Z,2.17
2017-11-19T07:42:50.906Z,3.17
2017-11-19T07:45:18.469Z,2.40
2017-11-19T07:47:46.035Z,2.30
2017-11-19T07:50:13.547Z,3.17
2017-11-19T07:52:41.137Z,2.40
2017-11-19T07:55:08.642Z,2.60
2017-11-19T07:57:36.159Z,2.30
2017-11-19T08:00:03.698Z,2.83
2017-11-19T08:02:31.974Z,2.80
2017-11-19T08:05:00.371Z,2.90
2017-11-19T08:07:27.898Z,2.77
2017-11-19T08:09:55.414Z,3.00
2017-11-19T08:12:22.926Z,2.90
2017-11-19T08:14:51.202Z,3.60
2017-11-19T08:17:19.577Z,3.33
2017-11-19T08:19:47.846Z,3.80
2017-11-19T08:22:16.144Z,2.73
2017-11-19T08:24:43.640Z,3.10
2017-11-19T08:27:11.202Z,3.50
2017-11-19T08:29:38.751Z,3.27
2017-11-19T08:32:06.253Z,3.90
2017-11-19T08:34:34.539Z,3.57
2017-11-19T08:37:02.810Z,3.23
2017-11-19T08:39:31.114Z,3.30
2017-11-19T08:41:58.684Z,4.50
2017-11-19T08:44:26.265Z,4.67
2017-11-19T08:46:53.784Z,3.33
2017-11-19T08:49:21.313Z,3.37
2017-11-19T08:51:49.621Z,2.80
2017-11-19T08:54:17.125Z,3.20
2017-11-19T08:56:44.643Z,3.00
2017-11-19T08:59:12.139Z,3.57
2017-11-19T09:01:39.635Z,3.50
2017-11-19T09:04:07.936Z,4.00
2017-11-19T09:06:35.436Z,3.30
2017-11-19T09:09:02.963Z,3.00
2017-11-19T09:11:30.462Z,4.10
2017-11-19T09:13:58.775Z,3.20
2017-11-19T09:16:26.299Z,2.50
2017-11-19T09:18:54.712Z,3.40
2017-11-19T09:21:22.239Z,2.90
2017-11-19T09:23:50.507Z,3.10
2017-11-19T09:26:18.806Z,2.40
2017-11-19T09:28:46.342Z,2.00
2017-11-19T09:31:14.611Z,2.23
2017-11-19T09:33:42.141Z,2.10
2017-11-19T09:36:09.645Z,2.67
2017-11-19T09:38:37.996Z,2.60
2017-11-19T09:41:05.529Z,2.00
2017-11-19T09:43:33.086Z,1.90
2017-11-19T09:46:00.729Z,2.37
2017-11-19T09:48:28.221Z,2.27
2017-11-19T09:50:55.774Z,2.40
2017-11-19T09:53:23.286Z,2.17
2017-11-19T09:55:50.839Z,1.70
2017-11-19T09:58:18.352Z,1.63
2017-11-19T10:00:45.923Z,2.90
2017-11-19T10:03:13.525Z,1.73
2017-11-19T10:05:42.785Z,2.20
2017-11-19T10:08:11.194Z,1.87
2017-11-19T10:10:38.811Z,1.80
2017-11-19T10:13:07.090Z,1.87
2017-11-19T10:15:34.832Z,2.10
2017-11-19T10:18:02.376Z,1.70
2017-11-19T10:20:29.936Z,1.50
2017-11-19T10:22:57.527Z,1.80
2017-11-19T10:25:25.703Z,1.87
2017-11-19T10:27:54.096Z,2.13
2017-11-19T10:30:22.400Z,2.10
2017-11-19T10:32:49.910Z,2.80
2017-11-19T10:35:17.491Z,3.50
2017-11-19T10:37:45.092Z,3.10
2017-11-19T10:40:12.600Z,3.03
2017-11-19T10:42:40.161Z,3.07
2017-11-19T10:45:08.433Z,3.10
2017-11-19T10:47:36.007Z,2.60
2017-11-19T10:50:04.381Z,3.60
2017-11-19T10:52:32.650Z,3.20
2017-11-19T10:55:00.966Z,2.90
2017-11-19T10:57:28.476Z,2.70
2017-11-19T10:59:56.811Z,2.93
2017-11-19T11:02:24.468Z,3.37
2017-11-19T11:04:52.046Z,2.80
2017-11-19T11:07:19.716Z,3.13
2017-11-19T11:09:47.288Z,2.30
2017-11-19T11:12:14.831Z,2.60
2017-11-19T11:14:42.405Z,3.07
2017-11-19T11:17:09.982Z,3.13
2017-11-19T11:19:38.257Z,2.00
2017-11-19T11:22:06.591Z,2.00
2017-11-19T11:24:34.187Z,1.93
2017-11-19T11:27:02.455Z,2.00
2017-11-19T11:29:30.838Z,2.37
2017-11-19T11:31:59.172Z,2.40
2017-11-19T11:34:26.722Z,2.37
2017-11-19T11:36:54.320Z,2.50
2017-11-19T11:39:21.865Z,2.70
2017-11-19T11:41:49.699Z,3.30
2017-11-19T11:44:17.278Z,3.03
2017-11-19T11:46:45.594Z,3.67
2017-11-19T11:49:13.985Z,2.57
2017-11-19T11:51:41.529Z,3.50
2017-11-19T11:54:09.805Z,2.30
2017-11-19T11:56:38.102Z,2.00
2017-11-19T11:59:05.655Z,2.00
2017-11-19T12:01:33.236Z,2.30
2017-11-19T12:04:00.799Z,2.40
2017-11-19T12:06:28.394Z,2.90
2017-11-19T12:08:56.154Z,2.20
2017-11-19T12:11:23.679Z,2.73
2017-11-19T12:13:51.358Z,2.00
2017-11-19T12:16:18.876Z,2.10
2017-11-19T12:18:46.399Z,2.27
2017-11-19T12:21:14.770Z,2.17
2017-11-19T12:23:42.337Z,2.47
2017-11-19T12:26:10.670Z,2.10
2017-11-19T12:28:38.229Z,1.93
2017-11-19T12:31:05.771Z,1.90
2017-11-19T12:33:33.329Z,2.00
2017-11-19T12:36:00.851Z,2.13
2017-11-19T12:38:28.382Z,2.30
2017-11-19T12:40:55.884Z,2.33
2017-11-19T12:43:24.176Z,2.00
2017-11-19T12:45:51.714Z,2.67
2017-11-19T12:48:20.010Z,2.17
2017-11-19T12:50:47.603Z,2.50
2017-11-19T12:53:15.197Z,2.60
2017-11-19T12:55:42.798Z,2.07
2017-11-19T12:58:10.303Z,1.87
2017-11-19T13:00:37.835Z,2.13
2017-11-19T13:03:05.367Z,2.00
2017-11-19T13:05:32.926Z,2.67
2017-11-19T13:08:00.491Z,2.10
2017-11-19T13:10:28.039Z,2.27
2017-11-19T13:12:55.613Z,2.37
2017-11-19T13:15:23.135Z,2.33
2017-11-19T13:17:51.520Z,2.07
2017-11-19T13:20:19.819Z,1.93
2017-11-19T13:22:47.339Z,2.40
2017-11-19T13:25:15.660Z,2.40
2017-11-19T13:27:43.218Z,2.60
2017-11-19T13:30:10.743Z,2.47
2017-11-19T13:32:39.064Z,3.10
2017-11-19T13:35:06.573Z,2.37
2017-11-19T13:37:34.867Z,2.73
2017-11-19T13:40:02.491Z,2.10
2017-11-19T13:42:30.071Z,1.63
2017-11-19T13:44:58.381Z,1.93
2017-11-19T13:47:25.910Z,2.40
2017-11-19T13:49:53.455Z,2.10
2017-11-19T13:52:21.782Z,2.30
2017-11-19T13:54:49.294Z,2.10
2017-11-19T13:57:17.609Z,1.90
2017-11-19T13:59:45.130Z,1.67
2017-11-19T14:02:12.672Z,2.13
2017-11-19T14:04:40.988Z,2.00
2017-11-19T14:07:08.522Z,2.70
2017-11-19T14:09:36.826Z,2.80
2017-11-19T14:12:04.385Z,1.83
2017-11-19T14:14:31.966Z,1.97
2017-11-19T14:16:59.470Z,2.17
2017-11-19T14:19:27.800Z,1.90
2017-11-19T14:21:55.325Z,1.80
2017-11-19T14:24:22.862Z,2.10
2017-11-19T14:26:51.171Z,2.23
2017-11-19T14:29:18.799Z,2.03
2017-11-19T14:31:46.359Z,2.40
2017-11-19T14:34:13.947Z,2.53
2017-11-19T14:36:41.550Z,2.40
2017-11-19T14:39:09.057Z,2.27
2017-11-19T14:41:36.703Z,2.80
2017-11-19T14:44:04.344Z,2.40
2017-11-19T14:46:32.763Z,2.27
2017-11-19T14:49:00.273Z,3.20
2017-11-19T14:51:29.250Z,2.70
2017-11-19T14:53:56.875Z,2.47
2017-11-19T14:56:24.384Z,2.87
2017-11-19T14:58:52.808Z,2.10
2017-11-19T15:01:20.388Z,2.60
2017-11-19T15:03:47.915Z,3.10
2017-11-19T15:06:15.562Z,3.17
2017-11-19T15:08:43.071Z,2.97
2017-11-19T15:11:10.608Z,3.53
2017-11-19T15:13:38.153Z,4.00
2017-11-19T15:16:05.761Z,2.07
2017-11-19T15:18:33.295Z,2.40
2017-11-19T15:21:00.820Z,2.60
2017-11-19T15:23:28.347Z,2.77
2017-11-19T15:25:56.776Z,2.30
2017-11-19T15:28:24.311Z,2.87
2017-11-19T15:30:52.068Z,2.93
2017-11-19T15:33:19.597Z,2.87
2017-11-19T15:35:47.105Z,3.27
2017-11-19T15:38:14.646Z,3.90
2017-11-19T15:40:42.194Z,3.10
2017-11-19T15:43:09.747Z,3.40
2017-11-19T15:45:38.079Z,2.43
2017-11-19T15:48:05.607Z,2.50
2017-11-19T15:50:33.195Z,2.10
2017-11-19T15:53:01.583Z,2.63
2017-11-19T15:55:29.115Z,2.30
2017-11-19T15:57:56.668Z,2.47
2017-11-19T16:00:24.195Z,2.63
2017-11-19T16:02:52.486Z,3.13
2017-11-19T16:05:20.021Z,2.47
2017-11-19T16:07:48.302Z,2.90
2017-11-19T16:10:16.607Z,3.50
2017-11-19T16:12:44.118Z,2.70
2017-11-19T16:15:11.717Z,2.80
2017-11-19T16:17:39.255Z,3.57
2017-11-19T16:20:06.802Z,2.90
2017-11-19T16:22:35.115Z,3.00
2017-11-19T16:25:02.633Z,3.27
2017-11-19T16:27:30.887Z,2.73
2017-11-19T16:29:58.465Z,3.40
2017-11-19T16:32:26.765Z,5.67
2017-11-19T16:34:54.315Z,4.60
2017-11-19T16:37:22.608Z,4.90
2017-11-19T16:39:50.162Z,3.17
2017-11-19T16:42:17.715Z,3.27
2017-11-19T16:44:45.227Z,3.47
2017-11-19T16:47:12.763Z,3.40
2017-11-19T16:49:40.270Z,2.70
2017-11-19T16:52:08.595Z,4.03
2017-11-19T16:54:36.105Z,3.60
2017-11-19T16:57:04.412Z,3.33
2017-11-19T16:59:31.974Z,3.70
2017-11-19T17:01:59.538Z,4.60
2017-11-19T17:04:27.064Z,3.43
2017-11-19T17:06:54.570Z,2.93
2017-11-19T17:09:22.122Z,2.50
2017-11-19T17:11:49.770Z,3.70
2017-11-19T17:14:17.321Z,3.10
2017-11-19T17:16:44.841Z,3.83
2017-11-19T17:19:12.399Z,3.33
2017-11-19T17:21:40.744Z,2.97
2017-11-19T17:24:08.288Z,2.50
2017-11-19T17:26:35.819Z,3.00
2017-11-19T17:29:03.329Z,3.53
2017-11-19T17:31:30.859Z,2.87
2017-11-19T17:33:58.379Z,2.80
2017-11-19T17:36:32.273Z,2.93
2017-11-19T17:39:00.538Z,2.60
2017-11-19T17:41:28.091Z,2.93
2017-11-19T17:43:55.605Z,3.40
2017-11-19T17:46:23.151Z,2.13
2017-11-19T17:48:50.676Z,2.60
2017-11-19T17:51:19.013Z,2.60
2017-11-19T17:53:46.552Z,3.00
2017-11-19T17:56:14.231Z,3.50
2017-11-19T17:58:41.809Z,2.90
2017-11-19T18:01:09.360Z,2.23
2017-11-19T18:03:36.948Z,3.03
2017-11-19T18:06:05.372Z,3.33
2017-11-19T18:08:32.902Z,2.67
2017-11-19T18:11:01.188Z,3.60
2017-11-19T18:13:28.704Z,3.00
2017-11-19T18:15:56.257Z,3.20
2017-11-19T18:18:25.285Z,3.40
2017-11-19T18:20:53.629Z,3.83
2017-11-19T18:23:21.928Z,4.60
2017-11-19T18:25:50.223Z,3.10
2017-11-19T18:28:17.745Z,3.00
2017-11-19T18:30:45.286Z,3.57
2017-11-19T18:33:12.800Z,3.30
2017-11-19T18:35:40.371Z,2.70
2017-11-19T18:38:07.920Z,2.20
2017-11-19T18:40:35.436Z,2.73
2017-11-19T18:43:02.984Z,3.33
2017-11-19T18:45:30.503Z,3.67
2017-11-19T18:47:58.066Z,2.90
2017-11-19T18:50:25.572Z,3.30
2017-11-19T18:52:53.118Z,3.23
2017-11-19T18:55:20.631Z,2.70
2017-11-19T18:57:48.161Z,3.53
2017-11-19T19:00:16.460Z,2.83
2017-11-19T19:02:43.986Z,2.90
2017-11-19T19:05:12.352Z,2.93
2017-11-19T19:07:39.929Z,2.70
2017-11-19T19:10:08.369Z,2.83
2017-11-19T19:12:35.912Z,3.20
2017-11-19T19:15:03.483Z,2.70
2017-11-19T19:17:31.132Z,3.50
2017-11-19T19:19:58.699Z,2.93
2017-11-19T19:22:26.261Z,4.10
2017-11-19T19:24:53.853Z,4.00
2017-11-19T19:27:21.499Z,3.57
2017-11-19T19:29:49.049Z,4.00
2017-11-19T19:32:16.760Z,4.10
2017-11-19T19:34:44.358Z,4.03
2017-11-19T19:37:11.916Z,3.10
2017-11-19T19:39:39.478Z,3.37
2017-11-19T19:42:07.058Z,4.40
2017-11-19T19:44:34.786Z,3.53
2017-11-19T19:47:02.340Z,4.00
2017-11-19T19:49:30.203Z,3.40
2017-11-19T19:51:57.782Z,3.70
2017-11-19T19:54:25.424Z,4.00
2017-11-19T19:56:53.034Z,2.40
2017-11-19T19:59:20.641Z,2.40
2017-11-19T20:01:48.519Z,2.80
2017-11-19T20:04:16.098Z,2.80
2017-11-19T20:06:43.618Z,2.10
2017-11-19T20:09:11.218Z,2.30
2017-11-19T20:11:38.742Z,2.37
2017-11-19T20:14:06.352Z,2.93
2017-11-19T20:16:34.636Z,2.80
2017-11-19T20:19:02.956Z,2.87
2017-11-19T20:21:30.510Z,2.80
2017-11-19T20:23:58.083Z,2.90
2017-11-19T20:26:25.613Z,2.47
2017-11-19T20:28:53.157Z,2.43
2017-11-19T20:31:21.464Z,4.73
2017-11-19T20:33:49.031Z,3.10
2017-11-19T20:36:16.553Z,3.13
2017-11-19T20:38:44.502Z,2.20
2017-11-19T20:41:12.955Z,2.60
2017-11-19T20:43:40.471Z,2.70
2017-11-19T20:46:08.042Z,2.80
2017-11-19T20:48:35.590Z,2.50
2017-11-19T20:51:03.176Z,3.00
2017-11-19T20:53:30.818Z,3.00
2017-11-19T20:55:58.319Z,3.20
2017-11-19T20:58:25.922Z,2.33
2017-11-19T21:00:53.475Z,2.73
2017-11-19T21:03:21.032Z,2.33
2017-11-19T21:05:48.564Z,3.17
2017-11-19T21:08:16.893Z,2.90
2017-11-19T21:10:44.404Z,2.43
2017-11-19T21:13:11.953Z,2.90
2017-11-19T21:15:39.506Z,3.37
2017-11-19T21:18:07.008Z,2.60
2017-11-19T21:20:34.568Z,3.27
2017-11-19T21:23:02.284Z,2.87
2017-11-19T21:25:30.659Z,3.40
2017-11-19T21:27:58.984Z,2.50
2017-11-19T21:30:26.521Z,2.87
2017-11-19T21:32:54.815Z,2.63
2017-11-19T21:35:22.452Z,2.60
2017-11-19T21:37:50.765Z,2.83
2017-11-19T21:40:18.302Z,2.97
2017-11-19T21:42:45.819Z,2.70
2017-11-19T21:45:13.451Z,3.07
2017-11-19T21:47:40.964Z,2.57
2017-11-19T21:50:09.264Z,3.20
2017-11-19T21:52:36.798Z,3.40
2017-11-19T21:55:05.126Z,3.27
2017-11-19T21:57:32.676Z,3.00
2017-11-19T22:00:00.337Z,3.10
2017-11-19T22:02:28.101Z,2.30
2017-11-19T22:04:55.625Z,2.77
2017-11-19T22:07:23.236Z,3.43
2017-11-19T22:09:50.899Z,2.70
2017-11-19T22:12:19.379Z,2.50
2017-11-19T22:14:47.013Z,3.20
2017-11-19T22:17:14.545Z,3.80
2017-11-19T22:19:42.163Z,2.80
2017-11-19T22:22:10.574Z,2.30
2017-11-19T22:24:38.839Z,3.33
2017-11-19T22:27:07.137Z,3.37
2017-11-19T22:29:34.631Z,2.83
2017-11-19T22:32:02.189Z,2.33
2017-11-19T22:34:29.701Z,2.87
2017-11-19T22:36:58.002Z,2.53
2017-11-19T22:39:25.517Z,2.60
2017-11-19T22:41:53.837Z,3.00
2017-11-19T22:44:21.399Z,2.50
2017-11-19T22:46:48.905Z,3.10
2017-11-19T22:49:17.225Z,2.70
2017-11-19T22:51:44.750Z,2.20
2017-11-19T22:54:13.040Z,2.63
2017-11-19T22:56:40.561Z,2.73
2017-11-19T22:59:08.107Z,3.20
2017-11-19T23:01:36.427Z,2.30
2017-11-19T23:04:03.969Z,2.70
2017-11-19T23:06:32.297Z,2.50
2017-11-19T23:08:59.834Z,2.50
2017-11-19T23:11:27.354Z,2.57
2017-11-19T23:13:55.668Z,2.67
2017-11-19T23:16:23.178Z,2.47
2017-11-19T23:18:50.697Z,3.60
2017-11-19T23:21:18.193Z,3.10
2017-11-19T23:23:45.862Z,2.13
2017-11-19T23:26:13.364Z,2.00
2017-11-19T23:28:40.894Z,1.77
2017-11-19T23:31:09.298Z,2.10
2017-11-19T23:33:36.865Z,2.60
2017-11-19T23:36:04.389Z,2.60
2017-11-19T23:38:32.693Z,2.30
2017-11-19T23:41:00.252Z,2.10
2017-11-19T23:43:27.782Z,1.93
2017-11-19T23:45:56.071Z,2.47
2017-11-19T23:48:23.587Z,2.10
2017-11-19T23:50:51.117Z,2.27
2017-11-19T23:53:18.648Z,2.60
2017-11-19T23:55:46.157Z,2.70
2017-11-19T23:58:13.708Z,2.17
